Footville, Wisconsin
Current Conditions -  °F | °C
As of 11:45 AM on Saturday 25 Oct 2014 (Local Time) from KJVL Reporting Station
Clear Clear  
Wind Chill: 66°   Ceiling: Unl
Heat Index: 66°   Visibility: 10mi
Dew Point: 39°   Wind: 14mph
Humidity: 37%   Direction: 320°NW
Pressure: 29.97"   Gusts: 20mph
Location:  42.67°N, 89.21°W
Report Text: KJVL 251645Z 32012G17KT 10SM SKC 19/04 A2997
Loading
Personal Weather Stations






























Interactive Weather Map
Tropical Storm Tracking
New forecast layout! Learn more

10-Day Weather Forecast

Advertisements
Track Severe Weather on mobile